Airfield :
LOGIN :

Register | Disclaimer

   EN    FR    IT 

 










Legend :    VFR   Marginal VFR   IFR   Intensive IFR   Very Intensive IFR
Visi :
Ceiling :
>= 8 km
>= 3000ft
5 to 8 km
1000 to 3000 ft
1500m to 5 km
500 to 1000 ft
800 to 1500m
200 to 500 ft
< 800m
< 200 ft
Symbols :   Thunderstorms  Fog  Heavy snow  Heavy precipitations  Wind > 20 kt
SIGMETs :     Misc.  Thunderstorms  Icing  Turbulence  Mountain Waves  Volcanic Ashes







- Airport Elevation : 375 ft
- IATA code : MST


EHBK - Maastricht Aachen

CURRENT METAR :
  • 240055Z AUTO 27004KT 240V320 9999 NSC 12/10 Q1023

EXPIRED METARs :
  • 240025Z AUTO VRB02KT 9999 FEW015CB 13/11 Q1024
  • 232355Z AUTO VRB02KT 9999 FEW015CB 14/11 Q1024
  • 232325Z AUTO 28003KT 230V340 9999 -RA FEW015CB 14/11 Q1024
  • 232255Z AUTO 30003KT 230V340 9999 -DZ FEW015CB 14/11 Q1024 RERA REDZ
  • 232225Z AUTO 25004KT 220V290 9999 FEW015CB 14/11 Q1024

TAF TAF EHBK
Valid from the 24 at 00:00 until the 25 at 06:00 UTC


232305Z 2400/2506 30005KT 9999 SCT035
PROB30 2404/2408 6000 BKN008
PROB40 2503/2506 4500 BR BKN008
No reported NOTAMs for that airfield.



MET'MAP, your aeronautical weather chart ! - Copyright ORBIFLY December 2007 - Disclaimer

ORBIFLY MET'MAP TEAM :

Programming & Development : Alexandra Zaïnal
Concept & Development : Baudouin d'Aumeries
Co-Development & Prog : Marc-Olivier Méhu
Technical & hardware support : Manuel Goepfert

Contact : metmap@orbifly.com




SOURCES & CREDITS :

   NOAA